sensor_id;sensor_type;location;lat;lon;timestamp;pressure;altitude;pressure_sealevel;temperature;humidity
71306;BME280;59097;46.858;18.632;2022-07-06T00:00:28;100435.53;;;17.86;92.08
71306;BME280;59097;46.858;18.632;2022-07-06T00:02:57;100437.97;;;17.87;91.42
71306;BME280;59097;46.858;18.632;2022-07-06T00:05:39;100440.28;;;17.84;92.00
71306;BME280;59097;46.858;18.632;2022-07-06T00:08:37;100440.69;;;17.76;92.48
71306;BME280;59097;46.858;18.632;2022-07-06T00:11:18;100435.62;;;17.79;93.14
71306;BME280;59097;46.858;18.632;2022-07-06T00:13:45;100423.06;;;17.56;93.43
71306;BME280;59097;46.858;18.632;2022-07-06T00:16:11;100437.41;;;17.62;93.70
71306;BME280;59097;46.858;18.632;2022-07-06T00:18:37;100429.69;;;17.66;93.01
71306;BME280;59097;46.858;18.632;2022-07-06T00:21:04;100434.00;;;17.67;93.21
71306;BME280;59097;46.858;18.632;2022-07-06T00:23:36;100415.88;;;18.08;90.03
71306;BME280;59097;46.858;18.632;2022-07-06T00:26:05;100415.88;;;18.08;90.03
71306;BME280;59097;46.858;18.632;2022-07-06T00:28:33;100416.50;;;17.41;93.53
71306;BME280;59097;46.858;18.632;2022-07-06T00:31:01;100419.91;;;17.36;94.65
71306;BME280;59097;46.858;18.632;2022-07-06T00:33:29;100404.16;;;17.28;94.61
71306;BME280;59097;46.858;18.632;2022-07-06T00:35:58;100414.06;;;17.39;93.99
71306;BME280;59097;46.858;18.632;2022-07-06T00:38:26;100401.69;;;17.38;94.52
71306;BME280;59097;46.858;18.632;2022-07-06T00:40:54;100403.09;;;17.41;94.20
71306;BME280;59097;46.858;18.632;2022-07-06T00:43:56;100395.75;;;17.25;94.59
71306;BME280;59097;46.858;18.632;2022-07-06T00:46:26;100397.16;;;17.27;94.00
71306;BME280;59097;46.858;18.632;2022-07-06T00:48:53;100397.63;;;17.24;93.68
71306;BME280;59097;46.858;18.632;2022-07-06T00:51:19;100392.97;;;17.31;92.76
71306;BME280;59097;46.858;18.632;2022-07-06T00:53:48;100383.63;;;17.22;93.58
71306;BME280;59097;46.858;18.632;2022-07-06T00:56:15;100376.97;;;17.25;93.15
71306;BME280;59097;46.858;18.632;2022-07-06T00:58:47;100384.50;;;17.97;88.22
71306;BME280;59097;46.858;18.632;2022-07-06T01:01:16;100384.50;;;17.97;88.22
71306;BME280;59097;46.858;18.632;2022-07-06T01:03:44;100388.44;;;17.32;92.50
71306;BME280;59097;46.858;18.632;2022-07-06T01:06:12;100398.78;;;17.28;92.03
71306;BME280;59097;46.858;18.632;2022-07-06T01:08:41;100403.00;;;17.24;92.79
71306;BME280;59097;46.858;18.632;2022-07-06T01:11:10;100405.44;;;17.26;92.51
71306;BME280;59097;46.858;18.632;2022-07-06T01:13:39;100407.41;;;17.19;92.84
71306;BME280;59097;46.858;18.632;2022-07-06T01:16:08;100407.06;;;17.15;93.71
71306;BME280;59097;46.858;18.632;2022-07-06T01:19:00;100397.03;;;17.11;92.53
71306;BME280;59097;46.858;18.632;2022-07-06T01:21:41;100402.50;;;17.04;93.68
71306;BME280;59097;46.858;18.632;2022-07-06T01:24:08;100389.25;;;17.09;93.22
71306;BME280;59097;46.858;18.632;2022-07-06T01:26:34;100379.19;;;17.05;93.62
71306;BME280;59097;46.858;18.632;2022-07-06T01:29:01;100387.03;;;17.06;93.10
71306;BME280;59097;46.858;18.632;2022-07-06T01:31:27;100385.25;;;17.00;93.41
71306;BME280;59097;46.858;18.632;2022-07-06T01:33:55;100388.63;;;17.07;93.32
71306;BME280;59097;46.858;18.632;2022-07-06T01:36:29;100362.78;;;17.47;89.80
71306;BME280;59097;46.858;18.632;2022-07-06T01:38:57;100362.78;;;17.47;89.80
71306;BME280;59097;46.858;18.632;2022-07-06T01:41:29;100400.28;;;17.01;92.85
71306;BME280;59097;46.858;18.632;2022-07-06T01:43:58;100397.03;;;16.99;92.82
71306;BME280;59097;46.858;18.632;2022-07-06T01:46:26;100390.84;;;16.98;92.98
71306;BME280;59097;46.858;18.632;2022-07-06T01:48:54;100381.62;;;16.94;92.43
71306;BME280;59097;46.858;18.632;2022-07-06T01:51:23;100379.41;;;16.91;91.97
71306;BME280;59097;46.858;18.632;2022-07-06T01:53:53;100374.28;;;16.90;92.47
71306;BME280;59097;46.858;18.632;2022-07-06T01:56:36;100385.72;;;16.85;93.02
71306;BME280;59097;46.858;18.632;2022-07-06T01:59:33;100391.19;;;16.90;93.45
71306;BME280;59097;46.858;18.632;2022-07-06T02:02:15;100383.59;;;16.87;92.12
71306;BME280;59097;46.858;18.632;2022-07-06T02:04:43;100378.38;;;16.81;93.19
71306;BME280;59097;46.858;18.632;2022-07-06T02:07:09;100385.47;;;16.87;91.75
71306;BME280;59097;46.858;18.632;2022-07-06T02:09:35;100371.94;;;16.82;91.83
71306;BME280;59097;46.858;18.632;2022-07-06T02:12:02;100384.06;;;16.84;91.81
71306;BME280;59097;46.858;18.632;2022-07-06T02:14:34;100380.81;;;17.40;88.92
71306;BME280;59097;46.858;18.632;2022-07-06T02:17:03;100380.81;;;17.40;88.92
71306;BME280;59097;46.858;18.632;2022-07-06T02:19:34;100392.47;;;16.88;90.87
71306;BME280;59097;46.858;18.632;2022-07-06T02:22:02;100392.09;;;16.84;91.20
71306;BME280;59097;46.858;18.632;2022-07-06T02:24:32;100397.13;;;16.81;90.97
71306;BME280;59097;46.858;18.632;2022-07-06T02:27:00;100398.34;;;16.67;92.54
71306;BME280;59097;46.858;18.632;2022-07-06T02:29:29;100392.91;;;16.73;92.16
71306;BME280;59097;46.858;18.632;2022-07-06T02:31:57;100399.41;;;16.66;91.97
71306;BME280;59097;46.858;18.632;2022-07-06T02:34:39;100392.41;;;16.65;93.13
71306;BME280;59097;46.858;18.632;2022-07-06T02:37:37;100397.19;;;16.63;92.31
71306;BME280;59097;46.858;18.632;2022-07-06T02:40:19;100400.22;;;16.48;92.59
71306;BME280;59097;46.858;18.632;2022-07-06T02:42:45;100412.50;;;16.56;92.19
71306;BME280;59097;46.858;18.632;2022-07-06T02:45:12;100419.75;;;16.55;92.68
71306;BME280;59097;46.858;18.632;2022-07-06T02:47:38;100424.28;;;16.55;93.38
71306;BME280;59097;46.858;18.632;2022-07-06T02:50:05;100425.09;;;16.55;92.03
71306;BME280;59097;46.858;18.632;2022-07-06T02:52:38;100419.87;;;17.13;88.52
71306;BME280;59097;46.858;18.632;2022-07-06T02:55:09;100419.87;;;17.13;88.52
71306;BME280;59097;46.858;18.632;2022-07-06T02:57:37;100423.28;;;16.49;91.86
71306;BME280;59097;46.858;18.632;2022-07-06T03:00:07;100425.25;;;16.42;92.44
71306;BME280;59097;46.858;18.632;2022-07-06T03:02:36;100425.38;;;16.47;91.44
71306;BME280;59097;46.858;18.632;2022-07-06T03:05:05;100427.09;;;16.42;90.54
71306;BME280;59097;46.858;18.632;2022-07-06T03:07:33;100421.16;;;16.40;90.47
71306;BME280;59097;46.858;18.632;2022-07-06T03:10:02;100430.37;;;16.44;91.05
71306;BME280;59097;46.858;18.632;2022-07-06T03:12:45;100430.22;;;16.38;90.55
71306;BME280;59097;46.858;18.632;2022-07-06T03:15:11;100357.25;;;16.02;89.96
71306;BME280;59097;46.858;18.632;2022-07-06T03:17:38;100426.97;;;16.36;91.10
71306;BME280;59097;46.858;18.632;2022-07-06T03:20:05;100438.94;;;16.34;91.36
71306;BME280;59097;46.858;18.632;2022-07-06T03:22:32;100424.16;;;16.31;90.74
71306;BME280;59097;46.858;18.632;2022-07-06T03:24:58;100422.31;;;16.32;90.66
71306;BME280;59097;46.858;18.632;2022-07-06T03:27:43;100422.06;;;16.33;90.37
71306;BME280;59097;46.858;18.632;2022-07-06T03:30:15;100422.06;;;17.05;86.74
71306;BME280;59097;46.858;18.632;2022-07-06T03:32:45;100422.06;;;17.05;86.74
71306;BME280;59097;46.858;18.632;2022-07-06T03:35:14;100433.03;;;16.44;89.27
71306;BME280;59097;46.858;18.632;2022-07-06T03:37:43;100433.50;;;16.41;89.42
71306;BME280;59097;46.858;18.632;2022-07-06T03:40:11;100432.31;;;16.36;90.51
71306;BME280;59097;46.858;18.632;2022-07-06T03:42:39;100434.31;;;16.41;89.56
71306;BME280;59097;46.858;18.632;2022-07-06T03:45:09;100431.44;;;16.43;90.51
71306;BME280;59097;46.858;18.632;2022-07-06T03:47:39;100425.94;;;16.37;90.29
71306;BME280;59097;46.858;18.632;2022-07-06T03:50:09;100428.88;;;16.48;89.33
71306;BME280;59097;46.858;18.632;2022-07-06T03:53:06;100433.75;;;16.51;88.58
71306;BME280;59097;46.858;18.632;2022-07-06T03:55:33;100432.59;;;16.65;88.60
71306;BME280;59097;46.858;18.632;2022-07-06T03:57:59;100435.75;;;16.73;87.75
71306;BME280;59097;46.858;18.632;2022-07-06T04:00:25;100443.22;;;16.83;87.03
71306;BME280;59097;46.858;18.632;2022-07-06T04:02:51;100425.06;;;16.85;86.43
71306;BME280;59097;46.858;18.632;2022-07-06T04:05:18;100429.97;;;16.88;86.49
71306;BME280;59097;46.858;18.632;2022-07-06T04:07:53;100431.03;;;19.49;74.78
71306;BME280;59097;46.858;18.632;2022-07-06T04:10:23;100431.03;;;19.49;74.78
71306;BME280;59097;46.858;18.632;2022-07-06T04:12:51;100425.62;;;18.26;78.83
71306;BME280;59097;46.858;18.632;2022-07-06T04:15:19;100425.03;;;17.73;81.49
71306;BME280;59097;46.858;18.632;2022-07-06T04:17:48;100421.91;;;17.76;82.02
71306;BME280;59097;46.858;18.632;2022-07-06T04:20:20;100418.84;;;17.60;81.92
71306;BME280;59097;46.858;18.632;2022-07-06T04:22:50;100413.37;;;17.67;81.63
71306;BME280;59097;46.858;18.632;2022-07-06T04:25:19;100415.00;;;17.68;81.85
71306;BME280;59097;46.858;18.632;2022-07-06T04:27:48;100410.09;;;17.88;80.90
71306;BME280;59097;46.858;18.632;2022-07-06T04:30:30;100409.22;;;18.11;78.45
71306;BME280;59097;46.858;18.632;2022-07-06T04:32:56;100410.50;;;18.48;78.04
71306;BME280;59097;46.858;18.632;2022-07-06T04:35:22;100408.97;;;21.51;67.97
71306;BME280;59097;46.858;18.632;2022-07-06T04:37:48;100402.94;;;25.10;53.55
71306;BME280;59097;46.858;18.632;2022-07-06T04:40:15;100413.25;;;26.18;49.88
71306;BME280;59097;46.858;18.632;2022-07-06T04:42:41;100405.91;;;25.95;49.73
71306;BME280;59097;46.858;18.632;2022-07-06T04:45:14;100400.53;;;31.09;38.05
71306;BME280;59097;46.858;18.632;2022-07-06T04:47:44;100400.53;;;31.09;38.05
71306;BME280;59097;46.858;18.632;2022-07-06T04:50:12;100404.81;;;30.08;39.92
71306;BME280;59097;46.858;18.632;2022-07-06T04:52:40;100403.34;;;29.23;40.87
71306;BME280;59097;46.858;18.632;2022-07-06T04:55:09;100395.25;;;30.96;37.41
71306;BME280;59097;46.858;18.632;2022-07-06T04:57:38;100401.69;;;30.66;37.78
71306;BME280;59097;46.858;18.632;2022-07-06T05:00:06;100405.47;;;31.80;35.74
71306;BME280;59097;46.858;18.632;2022-07-06T05:02:36;100411.75;;;33.45;32.87
71306;BME280;59097;46.858;18.632;2022-07-06T05:05:06;100406.72;;;32.41;34.35
71306;BME280;59097;46.858;18.632;2022-07-06T05:07:47;100417.59;;;31.15;37.42
71306;BME280;59097;46.858;18.632;2022-07-06T05:10:28;100418.34;;;32.67;34.00
71306;BME280;59097;46.858;18.632;2022-07-06T05:12:55;100413.56;;;31.30;35.05
71306;BME280;59097;46.858;18.632;2022-07-06T05:15:21;100415.22;;;33.54;31.48
71306;BME280;59097;46.858;18.632;2022-07-06T05:17:47;100414.84;;;32.37;34.47
71306;BME280;59097;46.858;18.632;2022-07-06T05:20:14;100423.47;;;33.54;32.28
71306;BME280;59097;46.858;18.632;2022-07-06T05:22:46;100431.53;;;31.65;34.89
71306;BME280;59097;46.858;18.632;2022-07-06T05:25:15;100431.53;;;31.65;34.89
71306;BME280;59097;46.858;18.632;2022-07-06T05:27:43;100447.69;;;33.61;32.38
71306;BME280;59097;46.858;18.632;2022-07-06T05:30:14;100444.06;;;32.83;33.16
71306;BME280;59097;46.858;18.632;2022-07-06T05:32:43;100448.06;;;34.20;30.68
71306;BME280;59097;46.858;18.632;2022-07-06T05:35:11;100460.22;;;35.66;28.56
71306;BME280;59097;46.858;18.632;2022-07-06T05:38:00;100455.53;;;33.95;31.08
71306;BME280;59097;46.858;18.632;2022-07-06T05:40:28;100446.19;;;33.64;30.65
71306;BME280;59097;46.858;18.632;2022-07-06T05:42:57;100462.34;;;32.58;32.97
71306;BME280;59097;46.858;18.632;2022-07-06T05:45:40;100463.81;;;34.07;30.70
71306;BME280;59097;46.858;18.632;2022-07-06T05:48:06;100457.22;;;31.52;33.59
71306;BME280;59097;46.858;18.632;2022-07-06T05:50:53;100469.00;;;32.78;32.93
71306;BME280;59097;46.858;18.632;2022-07-06T05:53:19;100467.44;;;32.89;33.06
71306;BME280;59097;46.858;18.632;2022-07-06T05:55:46;100464.19;;;32.46;34.55
71306;BME280;59097;46.858;18.632;2022-07-06T05:58:19;100453.06;;;30.94;36.90
71306;BME280;59097;46.858;18.632;2022-07-06T06:00:49;100453.06;;;30.94;36.90
71306;BME280;59097;46.858;18.632;2022-07-06T06:03:18;100440.78;;;27.56;44.19
71306;BME280;59097;46.858;18.632;2022-07-06T06:05:47;100442.03;;;25.72;49.05
71306;BME280;59097;46.858;18.632;2022-07-06T06:08:17;100430.22;;;23.87;55.30
71306;BME280;59097;46.858;18.632;2022-07-06T06:10:46;100438.09;;;23.84;56.07
71306;BME280;59097;46.858;18.632;2022-07-06T06:13:15;100449.00;;;24.32;54.74
71306;BME280;59097;46.858;18.632;2022-07-06T06:15:44;100446.87;;;24.29;54.72
71306;BME280;59097;46.858;18.632;2022-07-06T06:18:14;100441.09;;;23.62;56.93
71306;BME280;59097;46.858;18.632;2022-07-06T06:20:46;100437.63;;;23.06;58.52
71306;BME280;59097;46.858;18.632;2022-07-06T06:23:30;100433.03;;;23.06;59.67
71306;BME280;59097;46.858;18.632;2022-07-06T06:25:56;100441.94;;;23.27;59.07
71306;BME280;59097;46.858;18.632;2022-07-06T06:28:22;100441.94;;;23.22;58.56
71306;BME280;59097;46.858;18.632;2022-07-06T06:30:50;100442.50;;;23.19;58.40
71306;BME280;59097;46.858;18.632;2022-07-06T06:33:19;100443.56;;;23.48;58.43
71306;BME280;59097;46.858;18.632;2022-07-06T06:35:51;100446.25;;;23.28;57.71
71306;BME280;59097;46.858;18.632;2022-07-06T06:38:19;100441.41;;;23.25;58.66
71306;BME280;59097;46.858;18.632;2022-07-06T06:40:52;100447.50;;;24.01;58.19
71306;BME280;59097;46.858;18.632;2022-07-06T06:43:21;100447.50;;;24.01;58.19
71306;BME280;59097;46.858;18.632;2022-07-06T06:45:50;100457.87;;;23.64;58.67
71306;BME280;59097;46.858;18.632;2022-07-06T06:48:18;100459.25;;;23.31;58.08
71306;BME280;59097;46.858;18.632;2022-07-06T06:50:46;100452.50;;;23.44;58.56
71306;BME280;59097;46.858;18.632;2022-07-06T06:53:15;100464.97;;;23.50;58.77
71306;BME280;59097;46.858;18.632;2022-07-06T06:55:43;100454.34;;;23.89;57.79
71306;BME280;59097;46.858;18.632;2022-07-06T06:58:11;100460.84;;;23.77;57.81
71306;BME280;59097;46.858;18.632;2022-07-06T07:00:39;100457.50;;;24.06;57.30
71306;BME280;59097;46.858;18.632;2022-07-06T07:03:07;100469.88;;;24.37;57.59
71306;BME280;59097;46.858;18.632;2022-07-06T07:05:35;100469.34;;;24.30;58.08
71306;BME280;59097;46.858;18.632;2022-07-06T07:08:04;100474.03;;;24.19;56.39
71306;BME280;59097;46.858;18.632;2022-07-06T07:10:47;100468.09;;;24.02;56.53
71306;BME280;59097;46.858;18.632;2022-07-06T07:13:13;100478.44;;;23.80;57.23
71306;BME280;59097;46.858;18.632;2022-07-06T07:15:39;100492.53;;;23.82;57.50
71306;BME280;59097;46.858;18.632;2022-07-06T07:18:05;100469.81;;;23.73;58.23
71306;BME280;59097;46.858;18.632;2022-07-06T07:20:32;100485.44;;;24.16;57.61
71306;BME280;59097;46.858;18.632;2022-07-06T07:23:00;100481.31;;;24.29;56.12
71306;BME280;59097;46.858;18.632;2022-07-06T07:25:33;100477.53;;;24.74;54.72
71306;BME280;59097;46.858;18.632;2022-07-06T07:28:03;100477.53;;;24.74;54.72
71306;BME280;59097;46.858;18.632;2022-07-06T07:30:32;100480.81;;;24.17;55.46
71306;BME280;59097;46.858;18.632;2022-07-06T07:33:01;100485.41;;;24.21;55.67
71306;BME280;59097;46.858;18.632;2022-07-06T07:35:30;100495.69;;;24.29;56.27
71306;BME280;59097;46.858;18.632;2022-07-06T07:37:59;100489.81;;;24.61;55.14
71306;BME280;59097;46.858;18.632;2022-07-06T07:40:28;100487.59;;;24.73;55.19
71306;BME280;59097;46.858;18.632;2022-07-06T07:42:58;100498.91;;;24.90;54.43
71306;BME280;59097;46.858;18.632;2022-07-06T07:45:27;100509.22;;;25.27;53.97
71306;BME280;59097;46.858;18.632;2022-07-06T07:47:56;100492.59;;;25.00;53.41
71306;BME280;59097;46.858;18.632;2022-07-06T07:50:25;100503.94;;;25.07;53.56
71306;BME280;59097;46.858;18.632;2022-07-06T07:53:08;100506.84;;;25.21;54.18
71306;BME280;59097;46.858;18.632;2022-07-06T07:55:35;100509.72;;;25.34;53.00
71306;BME280;59097;46.858;18.632;2022-07-06T07:58:02;100505.28;;;25.48;53.25
71306;BME280;59097;46.858;18.632;2022-07-06T08:00:30;100513.72;;;25.08;53.30
71306;BME280;59097;46.858;18.632;2022-07-06T08:03:02;100505.13;;;26.21;51.37
71306;BME280;59097;46.858;18.632;2022-07-06T08:05:31;100505.13;;;26.21;51.37
71306;BME280;59097;46.858;18.632;2022-07-06T08:07:59;100511.53;;;25.44;55.25
71306;BME280;59097;46.858;18.632;2022-07-06T08:10:27;100506.31;;;25.57;52.91
71306;BME280;59097;46.858;18.632;2022-07-06T08:12:56;100515.19;;;25.92;51.46
71306;BME280;59097;46.858;18.632;2022-07-06T08:15:25;100508.06;;;25.72;53.34
71306;BME280;59097;46.858;18.632;2022-07-06T08:17:52;100514.38;;;25.91;51.79
71306;BME280;59097;46.858;18.632;2022-07-06T08:20:21;100504.87;;;26.17;49.19
71306;BME280;59097;46.858;18.632;2022-07-06T08:22:50;100509.16;;;27.73;46.48
71306;BME280;59097;46.858;18.632;2022-07-06T08:25:39;100512.28;;;28.26;44.38
71306;BME280;59097;46.858;18.632;2022-07-06T08:28:21;100508.22;;;29.66;40.22
71306;BME280;59097;46.858;18.632;2022-07-06T08:31:21;100502.25;;;30.34;39.59
71306;BME280;59097;46.858;18.632;2022-07-06T08:34:03;100502.06;;;31.22;37.50
71306;BME280;59097;46.858;18.632;2022-07-06T08:36:30;100501.84;;;31.61;37.22
71306;BME280;59097;46.858;18.632;2022-07-06T08:38:57;100499.53;;;30.99;38.88
71306;BME280;59097;46.858;18.632;2022-07-06T08:41:25;100494.63;;;30.79;39.03
71306;BME280;59097;46.858;18.632;2022-07-06T08:43:57;100504.81;;;30.96;38.57
71306;BME280;59097;46.858;18.632;2022-07-06T08:46:31;100502.13;;;31.77;37.37
71306;BME280;59097;46.858;18.632;2022-07-06T08:49:01;100502.13;;;31.77;37.37
71306;BME280;59097;46.858;18.632;2022-07-06T08:51:30;100503.44;;;32.75;35.01
71306;BME280;59097;46.858;18.632;2022-07-06T08:53:59;100500.94;;;30.88;37.63
71306;BME280;59097;46.858;18.632;2022-07-06T08:56:28;100503.31;;;32.92;33.87
71306;BME280;59097;46.858;18.632;2022-07-06T08:58:57;100498.37;;;29.87;39.08
71306;BME280;59097;46.858;18.632;2022-07-06T09:01:25;100499.66;;;30.94;37.57
71306;BME280;59097;46.858;18.632;2022-07-06T09:03:55;100498.66;;;32.05;35.92
71306;BME280;59097;46.858;18.632;2022-07-06T09:06:26;100504.50;;;31.87;36.18
71306;BME280;59097;46.858;18.632;2022-07-06T09:09:09;100505.28;;;31.58;36.85
71306;BME280;59097;46.858;18.632;2022-07-06T09:11:38;100509.13;;;31.65;35.28
71306;BME280;59097;46.858;18.632;2022-07-06T09:14:20;100506.66;;;31.81;34.63
71306;BME280;59097;46.858;18.632;2022-07-06T09:17:08;100499.78;;;31.58;35.00
71306;BME280;59097;46.858;18.632;2022-07-06T09:19:35;100502.19;;;30.82;37.20
71306;BME280;59097;46.858;18.632;2022-07-06T09:22:03;100502.22;;;31.34;37.21
71306;BME280;59097;46.858;18.632;2022-07-06T09:24:30;100511.91;;;31.05;36.64
71306;BME280;59097;46.858;18.632;2022-07-06T09:26:58;100507.16;;;29.23;39.33
71306;BME280;59097;46.858;18.632;2022-07-06T09:29:31;100501.84;;;30.49;37.34
71306;BME280;59097;46.858;18.632;2022-07-06T09:32:05;100497.84;;;30.56;38.99
71306;BME280;59097;46.858;18.632;2022-07-06T09:34:44;100497.84;;;30.56;38.99
71306;BME280;59097;46.858;18.632;2022-07-06T09:37:14;100497.53;;;31.26;37.89
71306;BME280;59097;46.858;18.632;2022-07-06T09:39:43;100504.78;;;31.39;36.15
71306;BME280;59097;46.858;18.632;2022-07-06T09:42:12;100509.78;;;30.68;37.84
71306;BME280;59097;46.858;18.632;2022-07-06T09:44:41;100505.78;;;29.65;39.74
71306;BME280;59097;46.858;18.632;2022-07-06T09:47:11;100500.75;;;28.92;40.01
71306;BME280;59097;46.858;18.632;2022-07-06T09:49:39;100489.62;;;28.25;40.50
71306;BME280;59097;46.858;18.632;2022-07-06T09:52:10;100498.09;;;28.24;40.51
71306;BME280;59097;46.858;18.632;2022-07-06T09:54:57;100494.59;;;28.10;41.09
71306;BME280;59097;46.858;18.632;2022-07-06T09:57:25;100503.12;;;27.89;40.27
71306;BME280;59097;46.858;18.632;2022-07-06T10:00:08;100497.75;;;27.98;39.10
71306;BME280;59097;46.858;18.632;2022-07-06T10:02:35;100499.13;;;28.14;40.99
71306;BME280;59097;46.858;18.632;2022-07-06T10:05:03;100494.59;;;28.10;42.08
71306;BME280;59097;46.858;18.632;2022-07-06T10:07:30;100506.81;;;28.12;38.15
71306;BME280;59097;46.858;18.632;2022-07-06T10:09:57;100502.56;;;28.06;38.53
71306;BME280;59097;46.858;18.632;2022-07-06T10:12:31;100497.38;;;28.59;37.12
71306;BME280;59097;46.858;18.632;2022-07-06T10:15:00;100497.38;;;28.59;37.12
71306;BME280;59097;46.858;18.632;2022-07-06T10:17:31;100498.59;;;27.98;38.11
71306;BME280;59097;46.858;18.632;2022-07-06T10:20:01;100498.59;;;27.85;36.98
71306;BME280;59097;46.858;18.632;2022-07-06T10:22:36;100508.22;;;28.10;35.77
71306;BME280;59097;46.858;18.632;2022-07-06T10:25:16;100511.06;;;28.18;36.92
71306;BME280;59097;46.858;18.632;2022-07-06T10:27:47;100504.97;;;28.35;35.54
71306;BME280;59097;46.858;18.632;2022-07-06T10:30:15;100495.09;;;28.12;33.95
71306;BME280;59097;46.858;18.632;2022-07-06T10:32:46;100507.09;;;28.24;34.78
71306;BME280;59097;46.858;18.632;2022-07-06T10:35:44;100499.22;;;28.23;35.14
71306;BME280;59097;46.858;18.632;2022-07-06T10:38:11;100488.59;;;28.35;34.65
71306;BME280;59097;46.858;18.632;2022-07-06T10:40:40;100505.37;;;28.69;33.39
71306;BME280;59097;46.858;18.632;2022-07-06T10:43:38;100499.50;;;28.48;30.14
71306;BME280;59097;46.858;18.632;2022-07-06T10:46:14;100505.47;;;28.50;30.90
71306;BME280;59097;46.858;18.632;2022-07-06T10:48:45;100500.41;;;28.57;31.51
71306;BME280;59097;46.858;18.632;2022-07-06T10:51:23;100501.53;;;28.56;31.38
71306;BME280;59097;46.858;18.632;2022-07-06T10:54:00;100507.16;;;28.60;30.57
71306;BME280;59097;46.858;18.632;2022-07-06T10:56:37;100496.16;;;28.65;30.50
71306;BME280;59097;46.858;18.632;2022-07-06T11:02:14;100463.25;;;28.84;31.05
71306;BME280;59097;46.858;18.632;2022-07-06T11:05:43;100507.19;;;28.74;28.21
71306;BME280;59097;46.858;18.632;2022-07-06T11:08:10;100501.63;;;29.01;30.40
71306;BME280;59097;46.858;18.632;2022-07-06T11:10:47;100499.09;;;29.04;30.19
71306;BME280;59097;46.858;18.632;2022-07-06T11:13:27;100502.47;;;28.88;29.27
71306;BME280;59097;46.858;18.632;2022-07-06T11:16:01;100511.63;;;29.05;29.04
71306;BME280;59097;46.858;18.632;2022-07-06T11:18:42;100507.47;;;29.08;27.36
71306;BME280;59097;46.858;18.632;2022-07-06T11:24:22;100512.09;;;29.21;28.80
71306;BME280;59097;46.858;18.632;2022-07-06T11:26:52;100504.53;;;29.40;29.56
71306;BME280;59097;46.858;18.632;2022-07-06T11:29:22;100518.09;;;29.23;29.82
71306;BME280;59097;46.858;18.632;2022-07-06T11:31:59;100507.31;;;28.91;27.49
71306;BME280;59097;46.858;18.632;2022-07-06T11:34:31;100522.59;;;29.27;28.27
71306;BME280;59097;46.858;18.632;2022-07-06T11:37:07;100519.41;;;29.12;28.08
71306;BME280;59097;46.858;18.632;2022-07-06T11:39:42;100519.50;;;28.85;26.63
71306;BME280;59097;46.858;18.632;2022-07-06T11:42:15;100516.22;;;28.96;26.31
71306;BME280;59097;46.858;18.632;2022-07-06T11:45:25;100520.97;;;28.91;27.87
71306;BME280;59097;46.858;18.632;2022-07-06T11:48:09;100520.75;;;29.01;25.57
71306;BME280;59097;46.858;18.632;2022-07-06T11:50:36;100502.41;;;29.15;27.22
71306;BME280;59097;46.858;18.632;2022-07-06T11:53:03;100504.25;;;29.06;26.58
71306;BME280;59097;46.858;18.632;2022-07-06T11:55:30;100511.34;;;29.29;26.36
71306;BME280;59097;46.858;18.632;2022-07-06T11:58:04;100506.41;;;30.15;26.78
71306;BME280;59097;46.858;18.632;2022-07-06T12:00:32;100506.41;;;30.15;26.78
71306;BME280;59097;46.858;18.632;2022-07-06T12:03:07;100510.47;;;29.42;25.64
71306;BME280;59097;46.858;18.632;2022-07-06T12:05:35;100506.13;;;29.41;26.34
71306;BME280;59097;46.858;18.632;2022-07-06T12:08:07;100516.22;;;29.32;25.06
71306;BME280;59097;46.858;18.632;2022-07-06T12:10:36;100502.25;;;28.98;24.76
71306;BME280;59097;46.858;18.632;2022-07-06T12:13:06;100509.88;;;29.23;26.08
71306;BME280;59097;46.858;18.632;2022-07-06T12:15:34;100508.03;;;28.96;24.85
71306;BME280;59097;46.858;18.632;2022-07-06T12:18:03;100497.09;;;28.96;25.77
71306;BME280;59097;46.858;18.632;2022-07-06T12:20:43;100497.34;;;28.86;24.90
71306;BME280;59097;46.858;18.632;2022-07-06T12:23:51;100500.28;;;29.12;26.05
71306;BME280;59097;46.858;18.632;2022-07-06T12:26:21;100494.09;;;29.20;25.35
71306;BME280;59097;46.858;18.632;2022-07-06T12:29:10;100503.00;;;29.12;25.28
71306;BME280;59097;46.858;18.632;2022-07-06T12:31:51;100506.72;;;28.94;24.49
71306;BME280;59097;46.858;18.632;2022-07-06T12:34:29;100503.12;;;28.85;24.53
71306;BME280;59097;46.858;18.632;2022-07-06T12:37:09;100490.69;;;29.01;26.94
71306;BME280;59097;46.858;18.632;2022-07-06T12:39:46;100500.44;;;29.51;25.96
71306;BME280;59097;46.858;18.632;2022-07-06T12:42:16;100500.44;;;29.51;25.96
71306;BME280;59097;46.858;18.632;2022-07-06T12:44:49;100497.78;;;29.02;26.97
71306;BME280;59097;46.858;18.632;2022-07-06T12:47:23;100494.84;;;28.76;25.52
71306;BME280;59097;46.858;18.632;2022-07-06T12:50:12;100497.13;;;28.83;27.50
71306;BME280;59097;46.858;18.632;2022-07-06T12:52:40;100500.72;;;28.56;26.84
71306;BME280;59097;46.858;18.632;2022-07-06T12:55:09;100498.75;;;28.21;27.89
71306;BME280;59097;46.858;18.632;2022-07-06T12:57:46;100487.91;;;28.29;27.59
71306;BME280;59097;46.858;18.632;2022-07-06T13:00:16;100485.97;;;28.43;29.85
71306;BME280;59097;46.858;18.632;2022-07-06T13:03:00;100489.47;;;28.57;29.18
71306;BME280;59097;46.858;18.632;2022-07-06T13:05:27;100498.00;;;28.56;30.18
71306;BME280;59097;46.858;18.632;2022-07-06T13:08:25;100489.53;;;28.44;29.43
71306;BME280;59097;46.858;18.632;2022-07-06T13:10:51;100493.16;;;28.39;29.85